createdAt,value
2018-04-15T00:00:31.903Z,49.56
2018-04-15T00:02:59.873Z,49.59
2018-04-15T00:05:27.988Z,49.49
2018-04-15T00:07:56.079Z,49.52
2018-04-15T00:10:24.120Z,49.57
2018-04-15T00:12:51.731Z,49.59
2018-04-15T00:15:19.622Z,49.44
2018-04-15T00:17:47.230Z,49.22
2018-04-15T00:20:14.791Z,49.61
2018-04-15T00:22:42.355Z,49.64
2018-04-15T00:25:09.979Z,49.54
2018-04-15T00:27:37.662Z,49.60
2018-04-15T00:30:05.525Z,49.56
2018-04-15T00:32:33.130Z,49.37
2018-04-15T00:35:00.868Z,49.60
2018-04-15T00:37:28.427Z,49.49
2018-04-15T00:39:56.388Z,49.46
2018-04-15T00:42:23.979Z,49.43
2018-04-15T00:44:51.598Z,49.34
2018-04-15T00:47:19.164Z,49.95
2018-04-15T00:49:47.070Z,49.88
2018-04-15T00:52:14.691Z,50.06
2018-04-15T00:54:42.255Z,49.91
2018-04-15T00:57:09.818Z,49.80
2018-04-15T00:59:37.414Z,49.81
2018-04-15T01:02:05.656Z,49.87
2018-04-15T01:04:33.724Z,49.83
2018-04-15T01:07:01.292Z,49.78
2018-04-15T01:09:28.894Z,49.96
2018-04-15T01:11:57.140Z,49.87
2018-04-15T01:14:24.759Z,49.91
2018-04-15T01:16:52.828Z,49.80
2018-04-15T01:19:20.388Z,49.81
2018-04-15T01:21:47.998Z,49.15
2018-04-15T01:24:15.601Z,49.94
2018-04-15T01:26:43.466Z,51.84
2018-04-15T01:29:11.078Z,52.36
2018-04-15T01:31:39.973Z,51.91
2018-04-15T01:34:07.755Z,51.89
2018-04-15T01:36:35.729Z,51.38
2018-04-15T01:39:03.573Z,51.55
2018-04-15T01:41:31.134Z,51.19
2018-04-15T01:43:59.128Z,51.01
2018-04-15T01:46:26.693Z,51.90
2018-04-15T01:48:54.658Z,51.89
2018-04-15T01:51:22.264Z,51.85
2018-04-15T01:53:49.884Z,52.68
2018-04-15T01:56:17.439Z,53.36
2018-04-15T01:58:44.995Z,52.93
2018-04-15T02:01:12.611Z,52.43
2018-04-15T02:03:40.167Z,52.72
2018-04-15T02:06:08.319Z,53.09
2018-04-15T02:08:35.879Z,53.92
2018-04-15T02:11:03.827Z,53.57
2018-04-15T02:13:31.919Z,53.77
2018-04-15T02:15:59.984Z,53.26
2018-04-15T02:18:28.051Z,52.69
2018-04-15T02:20:55.662Z,52.54
2018-04-15T02:23:24.163Z,52.22
2018-04-15T02:25:52.319Z,51.90
2018-04-15T02:28:19.874Z,51.82
2018-04-15T02:30:48.425Z,51.78
2018-04-15T02:33:16.046Z,52.48
2018-04-15T02:35:43.937Z,52.46
2018-04-15T02:38:11.550Z,52.44
2018-04-15T02:40:39.267Z,52.50
2018-04-15T02:43:06.874Z,53.03
2018-04-15T02:45:34.442Z,54.45
2018-04-15T02:48:02.008Z,56.68
2018-04-15T02:50:29.806Z,57.51
2018-04-15T02:52:57.913Z,57.65
2018-04-15T02:55:25.467Z,57.67
2018-04-15T02:57:53.085Z,59.75
2018-04-15T03:00:21.607Z,59.40
2018-04-15T03:02:50.006Z,58.65
2018-04-15T03:05:17.627Z,57.52
2018-04-15T03:07:45.468Z,56.63
2018-04-15T03:10:13.603Z,55.98
2018-04-15T03:12:41.724Z,55.47
2018-04-15T03:15:09.789Z,55.21
2018-04-15T03:17:37.881Z,55.75
2018-04-15T03:20:05.483Z,56.16
2018-04-15T03:22:33.086Z,55.67
2018-04-15T03:25:01.153Z,56.20
2018-04-15T03:27:29.220Z,57.32
2018-04-15T03:29:56.822Z,57.77
2018-04-15T03:32:24.379Z,57.21
2018-04-15T03:34:52.020Z,56.44
2018-04-15T03:37:20.184Z,55.72
2018-04-15T03:39:47.800Z,55.06
2018-04-15T03:42:15.397Z,54.82
2018-04-15T03:44:43.490Z,54.95
2018-04-15T03:47:11.672Z,54.77
2018-04-15T03:49:39.827Z,54.90
2018-04-15T03:52:07.387Z,54.49
2018-04-15T03:54:35.007Z,54.50
2018-04-15T03:57:02.563Z,54.67
2018-04-15T03:59:30.119Z,54.66
2018-04-15T04:01:57.719Z,55.40
2018-04-15T04:04:25.338Z,55.42
2018-04-15T04:06:52.902Z,56.68
2018-04-15T04:09:20.520Z,57.20
2018-04-15T04:11:48.142Z,57.16
2018-04-15T04:14:15.708Z,56.86
2018-04-15T04:16:44.811Z,58.05
2018-04-15T04:19:24.698Z,57.91
2018-04-15T04:22:04.290Z,57.07
2018-04-15T04:24:44.066Z,56.60
2018-04-15T04:27:12.597Z,56.85
2018-04-15T04:29:40.449Z,56.64
2018-04-15T04:32:08.707Z,56.18
2018-04-15T04:34:36.528Z,56.50
2018-04-15T04:37:04.611Z,57.35
2018-04-15T04:39:32.175Z,57.26
2018-04-15T04:42:00.090Z,58.06
2018-04-15T04:44:27.647Z,58.88
2018-04-15T04:46:55.215Z,58.87
2018-04-15T04:49:22.775Z,58.99
2018-04-15T04:51:50.402Z,58.39
2018-04-15T04:54:17.979Z,57.67
2018-04-15T04:56:45.736Z,57.51
2018-04-15T04:59:13.983Z,57.91
2018-04-15T05:01:42.427Z,58.73
2018-04-15T05:04:10.383Z,59.55
2018-04-15T05:06:37.986Z,59.47
2018-04-15T05:09:07.006Z,58.47
2018-04-15T05:11:34.610Z,59.38
2018-04-15T05:14:02.842Z,59.42
2018-04-15T05:16:30.397Z,58.60
2018-04-15T05:18:58.021Z,57.89
2018-04-15T05:21:26.049Z,58.29
2018-04-15T05:23:54.203Z,59.01
2018-04-15T05:26:22.151Z,60.40
2018-04-15T05:28:49.758Z,59.59
2018-04-15T05:31:17.358Z,58.49
2018-04-15T05:33:45.874Z,57.86
2018-04-15T05:36:13.498Z,57.71
2018-04-15T05:38:41.054Z,58.55
2018-04-15T05:41:08.667Z,58.13
2018-04-15T05:43:36.268Z,57.93
2018-04-15T05:46:05.121Z,58.23
2018-04-15T05:48:32.725Z,58.01
2018-04-15T05:51:00.531Z,57.49
2018-04-15T05:53:28.349Z,58.34
2018-04-15T05:55:56.416Z,59.44
2018-04-15T05:58:24.685Z,59.37
2018-04-15T06:00:52.252Z,58.93
2018-04-15T06:03:19.813Z,59.00
2018-04-15T06:05:47.419Z,58.67
2018-04-15T06:08:15.834Z,58.03
2018-04-15T06:10:44.037Z,58.07
2018-04-15T06:13:12.102Z,58.27
2018-04-15T06:15:39.679Z,58.06
2018-04-15T06:18:09.278Z,57.77
2018-04-15T06:20:36.852Z,58.13
2018-04-15T06:23:04.517Z,58.18
2018-04-15T06:25:33.031Z,59.94
2018-04-15T06:28:00.934Z,60.81
2018-04-15T06:30:28.550Z,60.40
2018-04-15T06:32:57.426Z,60.28
2018-04-15T06:35:25.527Z,59.74
2018-04-15T06:37:53.098Z,59.28
2018-04-15T06:40:21.039Z,59.07
2018-04-15T06:42:48.675Z,58.91
2018-04-15T06:45:16.346Z,60.31
2018-04-15T06:47:44.008Z,60.73
2018-04-15T06:50:12.047Z,59.88
2018-04-15T06:52:40.599Z,59.53
2018-04-15T06:55:08.158Z,58.87
2018-04-15T06:57:37.143Z,58.68
2018-04-15T07:00:05.099Z,59.73
2018-04-15T07:02:32.655Z,60.10
2018-04-15T07:05:00.255Z,59.76
2018-04-15T07:07:27.848Z,59.71
2018-04-15T07:09:56.167Z,59.08
2018-04-15T07:12:23.950Z,58.80
2018-04-15T07:14:51.862Z,58.35
2018-04-15T07:17:19.698Z,58.67
2018-04-15T07:19:47.313Z,58.29
2018-04-15T07:22:14.870Z,58.33
2018-04-15T07:24:42.778Z,58.22
2018-04-15T07:27:10.876Z,58.60
2018-04-15T07:29:38.935Z,58.98
2018-04-15T07:32:06.491Z,59.09
2018-04-15T07:34:34.475Z,58.54
2018-04-15T07:37:02.676Z,58.40
2018-04-15T07:39:30.286Z,58.23
2018-04-15T07:41:57.958Z,58.38
2018-04-15T07:44:25.506Z,60.68
2018-04-15T07:46:55.200Z,61.78
2018-04-15T07:49:23.023Z,61.39
2018-04-15T07:51:51.662Z,60.89
2018-04-15T07:54:19.468Z,60.32
2018-04-15T07:56:47.355Z,59.92
2018-04-15T07:59:14.923Z,60.03
2018-04-15T08:01:42.535Z,59.50
2018-04-15T08:04:10.323Z,58.59
2018-04-15T08:06:38.258Z,57.82
2018-04-15T08:09:06.939Z,57.20
2018-04-15T08:11:34.898Z,56.92
2018-04-15T08:14:03.295Z,56.92
2018-04-15T08:16:30.910Z,57.01
2018-04-15T08:18:59.131Z,56.83
2018-04-15T08:21:28.119Z,56.46
2018-04-15T08:23:56.623Z,56.01
2018-04-15T08:26:24.684Z,56.74
2018-04-15T08:28:53.872Z,58.43
2018-04-15T08:31:21.874Z,59.39
2018-04-15T08:33:50.394Z,60.21
2018-04-15T08:36:18.015Z,59.31
2018-04-15T08:38:46.157Z,58.67
2018-04-15T08:41:13.713Z,58.05
2018-04-15T08:43:41.328Z,57.34
2018-04-15T08:46:08.899Z,57.32
2018-04-15T08:48:36.512Z,57.42
2018-04-15T08:51:04.071Z,56.71
2018-04-15T08:53:32.476Z,56.82
2018-04-15T08:56:00.627Z,56.16
2018-04-15T08:58:28.461Z,55.74
2018-04-15T09:00:56.079Z,55.12
2018-04-15T09:03:25.515Z,54.71
2018-04-15T09:05:53.126Z,54.27
2018-04-15T09:08:20.681Z,53.90
2018-04-15T09:10:49.363Z,53.86
2018-04-15T09:13:17.177Z,53.95
2018-04-15T09:15:44.815Z,53.99
2018-04-15T09:18:12.475Z,53.80
2018-04-15T09:20:40.177Z,54.11
2018-04-15T09:23:07.795Z,54.25
2018-04-15T09:25:36.570Z,54.34
2018-04-15T09:28:04.548Z,55.17
2018-04-15T09:30:32.191Z,55.21
2018-04-15T09:32:59.811Z,54.61
2018-04-15T09:35:27.371Z,54.21
2018-04-15T09:37:54.996Z,54.15
2018-04-15T09:40:23.726Z,54.07
2018-04-15T09:42:51.567Z,53.56
2018-04-15T09:45:19.616Z,54.57
2018-04-15T09:47:48.696Z,54.61
2018-04-15T09:50:16.279Z,54.65
2018-04-15T09:52:44.230Z,54.29
2018-04-15T09:55:12.169Z,54.21
2018-04-15T09:57:40.014Z,54.06
2018-04-15T10:00:08.554Z,53.80
2018-04-15T10:02:36.444Z,53.43
2018-04-15T10:05:04.584Z,53.67
2018-04-15T10:07:32.701Z,53.70
2018-04-15T10:10:00.579Z,53.48
2018-04-15T10:12:28.209Z,53.28
2018-04-15T10:14:59.818Z,53.35
2018-04-15T10:17:27.763Z,53.46
2018-04-15T10:19:56.267Z,53.28
2018-04-15T10:22:25.362Z,53.09
2018-04-15T10:24:53.764Z,52.81
2018-04-15T10:27:22.926Z,53.10
2018-04-15T10:29:51.623Z,53.40
2018-04-15T10:32:20.612Z,53.44
2018-04-15T10:34:48.511Z,53.14
2018-04-15T10:37:16.562Z,53.03
2018-04-15T10:39:44.523Z,52.82
2018-04-15T10:42:12.933Z,52.72
2018-04-15T10:44:40.815Z,52.60
2018-04-15T10:47:09.967Z,52.49
2018-04-15T10:49:39.146Z,52.27
2018-04-15T10:52:09.937Z,53.00
2018-04-15T10:54:38.403Z,53.36
2018-04-15T10:57:06.036Z,53.23
2018-04-15T10:59:34.228Z,52.94
2018-04-15T11:02:02.250Z,52.73
2018-04-15T11:04:30.082Z,52.39
2018-04-15T11:06:57.874Z,52.74
2018-04-15T11:09:27.179Z,54.26
2018-04-15T11:11:56.050Z,54.60
2018-04-15T11:14:24.639Z,54.01
2018-04-15T11:16:52.218Z,54.14
2018-04-15T11:19:20.410Z,55.16
2018-04-15T11:21:49.152Z,55.53
2018-04-15T11:24:18.007Z,55.20
2018-04-15T11:26:47.702Z,54.85
2018-04-15T11:29:16.388Z,54.96
2018-04-15T11:31:45.212Z,55.07
2018-04-15T11:34:13.450Z,54.58
2018-04-15T11:36:42.008Z,55.36
2018-04-15T11:39:10.514Z,56.10
2018-04-15T11:41:38.452Z,55.81
2018-04-15T11:44:06.271Z,55.27
2018-04-15T11:46:34.262Z,55.11
2018-04-15T11:49:02.155Z,54.99
2018-04-15T11:51:30.180Z,55.38
2018-04-15T11:53:57.718Z,54.52
2018-04-15T11:56:25.366Z,54.34
2018-04-15T11:58:52.930Z,54.23
2018-04-15T12:01:20.686Z,54.12
2018-04-15T12:03:49.469Z,53.72
2018-04-15T12:06:17.423Z,53.15
2018-04-15T12:08:45.043Z,53.18
2018-04-15T12:11:12.650Z,52.00
2018-04-15T12:13:40.281Z,52.40
2018-04-15T12:16:08.225Z,52.70
2018-04-15T12:18:36.165Z,51.93
2018-04-15T12:21:04.431Z,51.88
2018-04-15T12:23:32.008Z,51.74
2018-04-15T12:25:59.563Z,50.80
2018-04-15T12:28:27.667Z,50.44
2018-04-15T12:30:56.274Z,50.23
2018-04-15T12:33:24.838Z,50.06
2018-04-15T12:35:52.479Z,50.28
2018-04-15T12:38:20.111Z,49.96
2018-04-15T12:40:47.699Z,50.07
2018-04-15T12:43:15.315Z,50.11
2018-04-15T12:45:43.230Z,50.25
2018-04-15T12:48:11.272Z,50.38
2018-04-15T12:50:40.640Z,50.76
2018-04-15T12:53:08.547Z,50.67
2018-04-15T12:55:36.737Z,50.58
2018-04-15T12:58:04.838Z,51.21
2018-04-15T13:00:33.477Z,51.72
2018-04-15T13:03:01.650Z,51.89
2018-04-15T13:05:29.768Z,51.88
2018-04-15T13:07:57.346Z,51.79
2018-04-15T13:10:26.095Z,52.02
2018-04-15T13:12:54.753Z,52.11
2018-04-15T13:15:22.336Z,52.41
2018-04-15T13:17:50.498Z,52.47
2018-04-15T13:20:20.186Z,52.66
2018-04-15T13:22:49.418Z,52.76
2018-04-15T13:25:16.974Z,53.14
2018-04-15T13:27:45.057Z,53.15
2018-04-15T13:30:13.280Z,54.11
2018-04-15T13:32:41.767Z,54.50
2018-04-15T13:35:09.367Z,54.07
2018-04-15T13:37:37.928Z,54.22
2018-04-15T13:40:05.491Z,54.17
2018-04-15T13:42:33.306Z,54.17
2018-04-15T13:45:01.267Z,54.60
2018-04-15T13:47:29.464Z,54.53
2018-04-15T13:49:57.967Z,54.50
2018-04-15T13:52:25.527Z,54.63
2018-04-15T13:54:54.080Z,54.50
2018-04-15T13:57:21.704Z,54.23
2018-04-15T13:59:49.746Z,54.19
2018-04-15T14:02:17.833Z,54.68
2018-04-15T14:04:45.455Z,54.71
2018-04-15T14:07:13.894Z,54.53
2018-04-15T14:09:41.475Z,54.36
2018-04-15T14:12:09.035Z,54.12
2018-04-15T14:14:37.142Z,54.43
2018-04-15T14:17:04.699Z,54.88
2018-04-15T14:19:32.264Z,54.90
2018-04-15T14:21:59.922Z,54.91
2018-04-15T14:24:27.491Z,55.19
2018-04-15T14:26:55.056Z,55.27
2018-04-15T14:29:23.362Z,55.47
2018-04-15T14:31:51.824Z,55.22
2018-04-15T14:34:19.455Z,55.31
2018-04-15T14:36:47.355Z,55.48
2018-04-15T14:39:14.911Z,55.48
2018-04-15T14:41:43.037Z,55.05
2018-04-15T14:44:10.655Z,55.19
2018-04-15T14:46:38.744Z,54.85
2018-04-15T14:49:07.129Z,54.70
2018-04-15T14:51:35.598Z,54.35
2018-04-15T14:54:04.036Z,54.15
2018-04-15T14:56:32.003Z,53.86
2018-04-15T14:59:01.555Z,53.53
2018-04-15T15:01:29.182Z,53.83
2018-04-15T15:03:57.580Z,53.76
2018-04-15T15:06:25.143Z,53.63
2018-04-15T15:08:52.718Z,53.48
2018-04-15T15:11:20.647Z,53.66
2018-04-15T15:13:48.951Z,53.99
2018-04-15T15:16:16.598Z,53.72
2018-04-15T15:18:44.159Z,53.70
2018-04-15T15:21:11.847Z,53.75
2018-04-15T15:23:39.407Z,53.42
2018-04-15T15:26:07.227Z,53.30
2018-04-15T15:28:35.464Z,53.78
2018-04-15T15:31:03.025Z,53.49
2018-04-15T15:33:31.419Z,53.49
2018-04-15T15:35:58.983Z,53.25
2018-04-15T15:38:26.595Z,53.50
2018-04-15T15:40:56.419Z,53.60
2018-04-15T15:43:24.064Z,53.53
2018-04-15T15:45:51.631Z,54.33
2018-04-15T15:48:19.745Z,54.50
2018-04-15T15:50:47.303Z,54.97
2018-04-15T15:53:16.183Z,55.86
2018-04-15T15:55:43.783Z,56.23
2018-04-15T15:58:12.146Z,56.10
2018-04-15T16:00:39.755Z,55.54
2018-04-15T16:03:08.126Z,55.29
2018-04-15T16:05:35.683Z,55.44
2018-04-15T16:08:04.411Z,55.98
2018-04-15T16:10:31.971Z,56.10
2018-04-15T16:12:59.538Z,56.32
2018-04-15T16:15:27.472Z,56.21
2018-04-15T16:17:56.079Z,56.75
2018-04-15T16:20:23.706Z,57.46
2018-04-15T16:22:51.583Z,58.36
2018-04-15T16:25:19.142Z,58.85
2018-04-15T16:27:48.056Z,58.96
2018-04-15T16:30:16.861Z,59.88
2018-04-15T16:32:44.970Z,60.27
2018-04-15T16:35:12.660Z,60.83
2018-04-15T16:37:40.959Z,61.03
2018-04-15T16:40:08.584Z,61.45
2018-04-15T16:42:37.188Z,61.56
2018-04-15T16:45:04.755Z,61.67
2018-04-15T16:47:32.439Z,61.54
2018-04-15T16:50:01.087Z,60.93
2018-04-15T16:52:29.617Z,60.47
2018-04-15T16:54:57.372Z,59.85
2018-04-15T16:57:24.986Z,59.46
2018-04-15T16:59:53.049Z,59.68
2018-04-15T17:02:21.118Z,59.26
2018-04-15T17:04:48.716Z,58.90
2018-04-15T17:07:16.271Z,59.01
2018-04-15T17:09:43.878Z,59.12
2018-04-15T17:12:13.102Z,58.91
2018-04-15T17:14:40.715Z,58.74
2018-04-15T17:17:08.274Z,58.14
2018-04-15T17:19:36.653Z,57.81
2018-04-15T17:22:05.927Z,57.58
2018-04-15T17:24:33.882Z,57.14
2018-04-15T17:27:01.950Z,56.77
2018-04-15T17:29:29.755Z,56.72
2018-04-15T17:31:57.369Z,56.62
2018-04-15T17:34:24.933Z,56.42
2018-04-15T17:36:53.123Z,56.41
2018-04-15T17:39:23.348Z,56.56
2018-04-15T17:41:51.708Z,57.04
2018-04-15T17:44:20.090Z,57.32
2018-04-15T17:46:48.675Z,57.76
2018-04-15T17:49:16.231Z,57.69
2018-04-15T17:51:43.828Z,57.54
2018-04-15T17:54:12.406Z,57.54
2018-04-15T17:56:41.213Z,57.61
2018-04-15T17:59:08.790Z,58.11
2018-04-15T18:01:36.720Z,58.17
2018-04-15T18:04:04.836Z,57.60
2018-04-15T18:06:32.647Z,57.28
2018-04-15T18:09:01.694Z,56.98
2018-04-15T18:11:29.683Z,56.69
2018-04-15T18:13:57.418Z,56.86
2018-04-15T18:16:26.084Z,56.89
2018-04-15T18:18:53.707Z,57.22
2018-04-15T18:21:22.584Z,57.58
2018-04-15T18:23:50.713Z,57.36
2018-04-15T18:26:18.408Z,57.05
2018-04-15T18:28:46.289Z,57.39
2018-04-15T18:31:14.371Z,57.77
2018-04-15T18:33:42.431Z,58.04
2018-04-15T18:36:10.266Z,58.42
2018-04-15T18:38:38.218Z,58.44
2018-04-15T18:41:06.379Z,58.32
2018-04-15T18:43:33.980Z,58.62
2018-04-15T18:46:01.592Z,58.38
2018-04-15T18:48:30.583Z,58.04
2018-04-15T18:50:59.900Z,57.90
2018-04-15T18:53:29.827Z,57.73
2018-04-15T18:55:58.843Z,58.01
2018-04-15T18:58:28.272Z,58.08
2018-04-15T19:00:56.161Z,58.03
2018-04-15T19:03:23.788Z,58.68
2018-04-15T19:05:51.408Z,59.62
2018-04-15T19:08:19.224Z,59.29
2018-04-15T19:10:47.972Z,59.63
2018-04-15T19:13:16.330Z,59.63
2018-04-15T19:15:44.766Z,58.96
2018-04-15T19:18:15.124Z,59.26
2018-04-15T19:20:42.847Z,59.02
2018-04-15T19:23:10.935Z,58.85
2018-04-15T19:25:39.183Z,58.91
2018-04-15T19:28:07.231Z,59.76
2018-04-15T19:30:35.278Z,60.25
2018-04-15T19:33:03.247Z,59.41
2018-04-15T19:35:32.040Z,58.87
2018-04-15T19:38:00.581Z,58.64
2018-04-15T19:40:29.012Z,58.63
2018-04-15T19:42:58.466Z,58.44
2018-04-15T19:45:28.378Z,58.24
2018-04-15T19:47:56.007Z,58.70
2018-04-15T19:50:24.008Z,58.63
2018-04-15T19:52:52.244Z,58.19
2018-04-15T19:55:19.883Z,58.54
2018-04-15T19:57:47.444Z,60.65
2018-04-15T20:00:15.558Z,61.11
2018-04-15T20:02:43.441Z,60.63
2018-04-15T20:05:11.804Z,60.11
2018-04-15T20:07:39.375Z,59.70
2018-04-15T20:10:06.941Z,61.33
2018-04-15T20:12:34.994Z,61.91
2018-04-15T20:15:03.031Z,61.76
2018-04-15T20:17:31.556Z,61.13
2018-04-15T20:19:59.631Z,60.77
2018-04-15T20:22:27.998Z,60.77
2018-04-15T20:24:55.963Z,60.86
2018-04-15T20:27:23.867Z,60.42
2018-04-15T20:29:51.427Z,60.18
2018-04-15T20:32:19.003Z,60.12
2018-04-15T20:34:47.276Z,59.64
2018-04-15T20:37:14.839Z,59.98
2018-04-15T20:39:43.590Z,60.02
2018-04-15T20:42:11.332Z,59.75
2018-04-15T20:44:39.616Z,60.85
2018-04-15T20:47:07.839Z,62.03
2018-04-15T20:49:36.020Z,61.83
2018-04-15T20:52:03.591Z,61.43
2018-04-15T20:54:31.190Z,60.97
2018-04-15T20:56:58.978Z,61.89
2018-04-15T20:59:26.960Z,61.89
2018-04-15T21:01:55.166Z,61.78
2018-04-15T21:04:24.991Z,60.93
2018-04-15T21:06:52.574Z,61.00
2018-04-15T21:09:20.195Z,60.96
2018-04-15T21:11:48.055Z,61.15
2018-04-15T21:14:15.627Z,60.69
2018-04-15T21:16:44.392Z,60.38
2018-04-15T21:19:12.007Z,60.23
2018-04-15T21:21:39.662Z,60.23
2018-04-15T21:24:07.399Z,60.73
2018-04-15T21:26:34.958Z,60.56
2018-04-15T21:29:03.522Z,61.20
2018-04-15T21:31:31.636Z,60.82
2018-04-15T21:33:59.214Z,60.63
2018-04-15T21:36:28.268Z,60.41
2018-04-15T21:38:55.848Z,60.33
2018-04-15T21:41:23.979Z,60.41
2018-04-15T21:43:51.590Z,60.29
2018-04-15T21:46:19.421Z,60.01
2018-04-15T21:48:47.062Z,59.93
2018-04-15T21:51:15.366Z,62.01
2018-04-15T21:53:42.978Z,64.36
2018-04-15T21:56:11.074Z,64.31
2018-04-15T21:58:39.143Z,63.33
2018-04-15T22:01:07.190Z,62.69
2018-04-15T22:03:34.822Z,62.68
2018-04-15T22:06:02.368Z,62.34
2018-04-15T22:08:30.761Z,61.90
2018-04-15T22:10:58.593Z,61.54
2018-04-15T22:13:26.597Z,63.80
2018-04-15T22:15:54.201Z,64.26
2018-04-15T22:18:21.892Z,64.78
2018-04-15T22:20:49.504Z,65.48
2018-04-15T22:23:17.650Z,65.29
2018-04-15T22:25:45.274Z,64.10
2018-04-15T22:28:12.835Z,63.23
2018-04-15T22:30:41.349Z,62.78
2018-04-15T22:33:09.485Z,62.82
2018-04-15T22:35:37.551Z,62.50
2018-04-15T22:38:05.495Z,62.27
2018-04-15T22:40:33.334Z,62.05
2018-04-15T22:43:00.898Z,62.00
2018-04-15T22:45:28.504Z,61.96
2018-04-15T22:48:01.584Z,61.82
2018-04-15T22:50:34.651Z,62.69
2018-04-15T22:53:02.269Z,62.58
2018-04-15T22:55:30.251Z,62.31
2018-04-15T22:57:57.901Z,61.88
2018-04-15T23:00:25.462Z,61.75
2018-04-15T23:02:54.552Z,61.46
2018-04-15T23:05:22.735Z,61.51
2018-04-15T23:07:50.295Z,62.37
2018-04-15T23:10:18.546Z,62.19
2018-04-15T23:12:46.614Z,61.82
2018-04-15T23:15:14.704Z,61.63
2018-04-15T23:17:42.342Z,61.95
2018-04-15T23:20:09.933Z,62.68
2018-04-15T23:22:37.533Z,62.42
2018-04-15T23:25:05.131Z,62.31
2018-04-15T23:27:32.695Z,62.57
2018-04-15T23:30:00.512Z,62.62
2018-04-15T23:32:28.861Z,62.39
2018-04-15T23:34:56.681Z,61.91
2018-04-15T23:37:24.278Z,62.04
2018-04-15T23:39:51.902Z,61.99
2018-04-15T23:42:20.104Z,61.99
2018-04-15T23:44:47.669Z,61.96
2018-04-15T23:47:15.234Z,61.75
2018-04-15T23:49:43.103Z,61.61
2018-04-15T23:52:11.278Z,61.32
2018-04-15T23:54:38.835Z,61.00
2018-04-15T23:57:06.457Z,60.85
2018-04-15T23:59:34.041Z,60.77
